sensor_id;sensor_type;location;lat;lon;timestamp;P1;durP1;ratioP1;P2;durP2;ratioP2
15498;SDS011;7851;52.260;6.030;2023-04-26T00:03:18;4;;;2.8;;
15498;SDS011;7851;52.260;6.030;2023-04-26T00:03:18;3.4;;;2.9;;
15498;SDS011;7851;52.260;6.030;2023-04-26T00:03:19;3.8;;;2.6;;
15498;SDS011;7851;52.260;6.030;2023-04-26T00:04:09;9.5;;;3.1;;
15498;SDS011;7851;52.260;6.030;2023-04-26T00:05:09;3.6;;;2.9;;
15498;SDS011;7851;52.260;6.030;2023-04-26T00:06:09;4.1;;;2.6;;
15498;SDS011;7851;52.260;6.030;2023-04-26T00:07:09;5.6;;;2.8;;
15498;SDS011;7851;52.260;6.030;2023-04-26T00:08:09;6;;;3;;
15498;SDS011;7851;52.260;6.030;2023-04-26T00:09:09;5;;;2.6;;
15498;SDS011;7851;52.260;6.030;2023-04-26T00:10:09;7.1;;;3.2;;
15498;SDS011;7851;52.260;6.030;2023-04-26T00:11:09;7;;;3.3;;
15498;SDS011;7851;52.260;6.030;2023-04-26T00:12:09;3.8;;;3.1;;
15498;SDS011;7851;52.260;6.030;2023-04-26T00:13:09;6.3;;;3.4;;
15498;SDS011;7851;52.260;6.030;2023-04-26T00:14:09;4;;;3.1;;
15498;SDS011;7851;52.260;6.030;2023-04-26T00:15:09;6.8;;;3.3;;
15498;SDS011;7851;52.260;6.030;2023-04-26T00:16:09;4;;;3.2;;
15498;SDS011;7851;52.260;6.030;2023-04-26T00:17:09;6.1;;;3.2;;
15498;SDS011;7851;52.260;6.030;2023-04-26T00:18:09;3.6;;;2.7;;
15498;SDS011;7851;52.260;6.030;2023-04-26T00:19:09;7.5;;;3.7;;
15498;SDS011;7851;52.260;6.030;2023-04-26T00:20:10;6.7;;;3.4;;
15498;SDS011;7851;52.260;6.030;2023-04-26T00:21:09;6;;;3.2;;
15498;SDS011;7851;52.260;6.030;2023-04-26T00:22:09;6;;;3.2;;
15498;SDS011;7851;52.260;6.030;2023-04-26T00:23:09;5;;;3.1;;
15498;SDS011;7851;52.260;6.030;2023-04-26T00:24:09;6.3;;;3.8;;
15498;SDS011;7851;52.260;6.030;2023-04-26T00:25:09;5;;;3.2;;
15498;SDS011;7851;52.260;6.030;2023-04-26T00:26:09;3.9;;;3.2;;
15498;SDS011;7851;52.260;6.030;2023-04-26T00:27:09;4.2;;;3.1;;
15498;SDS011;7851;52.260;6.030;2023-04-26T00:28:09;3.8;;;3.1;;
15498;SDS011;7851;52.260;6.030;2023-04-26T00:29:09;7.5;;;3.7;;
15498;SDS011;7851;52.260;6.030;2023-04-26T00:30:10;11;;;3.7;;
15498;SDS011;7851;52.260;6.030;2023-04-26T00:31:12;7.4;;;3.5;;
15498;SDS011;7851;52.260;6.030;2023-04-26T00:32:09;9.7;;;3.4;;
15498;SDS011;7851;52.260;6.030;2023-04-26T00:33:09;6.7;;;3.7;;
15498;SDS011;7851;52.260;6.030;2023-04-26T00:34:09;5.1;;;3.8;;
15498;SDS011;7851;52.260;6.030;2023-04-26T00:35:09;5.6;;;3.2;;
15498;SDS011;7851;52.260;6.030;2023-04-26T00:36:09;5.1;;;3.5;;
15498;SDS011;7851;52.260;6.030;2023-04-26T00:37:09;5.3;;;3.6;;
15498;SDS011;7851;52.260;6.030;2023-04-26T00:38:09;6.6;;;3.4;;
15498;SDS011;7851;52.260;6.030;2023-04-26T00:39:09;5;;;3.5;;
15498;SDS011;7851;52.260;6.030;2023-04-26T00:40:10;4.4;;;3.4;;
15498;SDS011;7851;52.260;6.030;2023-04-26T00:41:09;7.7;;;3.8;;
15498;SDS011;7851;52.260;6.030;2023-04-26T00:42:09;7.1;;;3.6;;
15498;SDS011;7851;52.260;6.030;2023-04-26T00:43:09;6.3;;;3.4;;
15498;SDS011;7851;52.260;6.030;2023-04-26T00:44:09;6.9;;;3.9;;
15498;SDS011;7851;52.260;6.030;2023-04-26T00:45:09;7.2;;;4;;
15498;SDS011;7851;52.260;6.030;2023-04-26T00:46:09;4.2;;;3.2;;
15498;SDS011;7851;52.260;6.030;2023-04-26T00:47:09;6.9;;;3.1;;
15498;SDS011;7851;52.260;6.030;2023-04-26T00:48:09;6;;;3.7;;
15498;SDS011;7851;52.260;6.030;2023-04-26T00:49:09;9.6;;;3.9;;
15498;SDS011;7851;52.260;6.030;2023-04-26T00:50:09;3.9;;;3.5;;
15498;SDS011;7851;52.260;6.030;2023-04-26T00:51:09;4;;;3;;
15498;SDS011;7851;52.260;6.030;2023-04-26T00:52:09;6.8;;;3.7;;
15498;SDS011;7851;52.260;6.030;2023-04-26T00:53:09;4.6;;;3.4;;
15498;SDS011;7851;52.260;6.030;2023-04-26T00:54:09;5.1;;;3.5;;
15498;SDS011;7851;52.260;6.030;2023-04-26T00:55:09;6.8;;;3.8;;
15498;SDS011;7851;52.260;6.030;2023-04-26T00:56:10;6.2;;;3.5;;
15498;SDS011;7851;52.260;6.030;2023-04-26T00:57:09;5.1;;;3.6;;
15498;SDS011;7851;52.260;6.030;2023-04-26T00:58:09;4.5;;;3.6;;
15498;SDS011;7851;52.260;6.030;2023-04-26T00:59:09;5.8;;;3.5;;
15498;SDS011;7851;52.260;6.030;2023-04-26T01:00:10;3.8;;;3;;
15498;SDS011;7851;52.260;6.030;2023-04-26T01:01:09;4.9;;;3.2;;
15498;SDS011;7851;52.260;6.030;2023-04-26T01:02:09;3.4;;;2.9;;
15498;SDS011;7851;52.260;6.030;2023-04-26T01:03:09;4.6;;;3.6;;
15498;SDS011;7851;52.260;6.030;2023-04-26T01:04:09;7.7;;;3.8;;
15498;SDS011;7851;52.260;6.030;2023-04-26T01:05:09;5.8;;;3.5;;
15498;SDS011;7851;52.260;6.030;2023-04-26T01:06:09;5.4;;;3.3;;
15498;SDS011;7851;52.260;6.030;2023-04-26T01:07:09;6;;;3.8;;
15498;SDS011;7851;52.260;6.030;2023-04-26T01:08:09;7.6;;;3;;
15498;SDS011;7851;52.260;6.030;2023-04-26T01:09:09;7.2;;;2.5;;
15498;SDS011;7851;52.260;6.030;2023-04-26T01:10:10;5;;;3.1;;
15498;SDS011;7851;52.260;6.030;2023-04-26T01:11:09;4.5;;;3.2;;
15498;SDS011;7851;52.260;6.030;2023-04-26T01:12:10;7.4;;;3.2;;
15498;SDS011;7851;52.260;6.030;2023-04-26T01:13:09;6.8;;;3.4;;
15498;SDS011;7851;52.260;6.030;2023-04-26T01:14:09;4.5;;;3;;
15498;SDS011;7851;52.260;6.030;2023-04-26T01:15:10;6.8;;;3.4;;
15498;SDS011;7851;52.260;6.030;2023-04-26T01:16:09;3.4;;;3;;
15498;SDS011;7851;52.260;6.030;2023-04-26T01:17:09;5.8;;;3.5;;
15498;SDS011;7851;52.260;6.030;2023-04-26T01:18:09;5.3;;;3.2;;
15498;SDS011;7851;52.260;6.030;2023-04-26T01:19:10;10.9;;;3.9;;
15498;SDS011;7851;52.260;6.030;2023-04-26T01:20:09;6.7;;;3.2;;
15498;SDS011;7851;52.260;6.030;2023-04-26T01:21:09;4.5;;;3.5;;
15498;SDS011;7851;52.260;6.030;2023-04-26T01:22:09;4.9;;;3.5;;
15498;SDS011;7851;52.260;6.030;2023-04-26T01:23:09;4.6;;;3;;
15498;SDS011;7851;52.260;6.030;2023-04-26T01:24:10;5;;;3.2;;
15498;SDS011;7851;52.260;6.030;2023-04-26T01:25:10;5.9;;;3.3;;
15498;SDS011;7851;52.260;6.030;2023-04-26T01:26:09;7.9;;;4;;
15498;SDS011;7851;52.260;6.030;2023-04-26T01:27:09;6.4;;;3.2;;
15498;SDS011;7851;52.260;6.030;2023-04-26T01:28:09;7.4;;;3.8;;
15498;SDS011;7851;52.260;6.030;2023-04-26T01:29:13;4.2;;;3.4;;
15498;SDS011;7851;52.260;6.030;2023-04-26T01:30:10;6;;;3.2;;
15498;SDS011;7851;52.260;6.030;2023-04-26T01:31:09;5.3;;;3.6;;
15498;SDS011;7851;52.260;6.030;2023-04-26T01:32:09;4.4;;;3.3;;
15498;SDS011;7851;52.260;6.030;2023-04-26T01:33:09;3.8;;;3.3;;
15498;SDS011;7851;52.260;6.030;2023-04-26T01:34:09;4.5;;;3.3;;
15498;SDS011;7851;52.260;6.030;2023-04-26T01:35:09;5.5;;;3.3;;
15498;SDS011;7851;52.260;6.030;2023-04-26T01:36:09;5.4;;;3.2;;
15498;SDS011;7851;52.260;6.030;2023-04-26T01:37:09;5.1;;;3.2;;
15498;SDS011;7851;52.260;6.030;2023-04-26T01:38:09;4.6;;;3.4;;
15498;SDS011;7851;52.260;6.030;2023-04-26T01:39:09;3.5;;;3;;
15498;SDS011;7851;52.260;6.030;2023-04-26T01:40:10;5.1;;;3.4;;
15498;SDS011;7851;52.260;6.030;2023-04-26T01:41:09;5.3;;;3.1;;
15498;SDS011;7851;52.260;6.030;2023-04-26T01:42:09;6.8;;;3.5;;
15498;SDS011;7851;52.260;6.030;2023-04-26T01:43:09;4.3;;;3.5;;
15498;SDS011;7851;52.260;6.030;2023-04-26T01:44:09;5.8;;;3.2;;
15498;SDS011;7851;52.260;6.030;2023-04-26T01:45:10;6;;;3.2;;
15498;SDS011;7851;52.260;6.030;2023-04-26T01:46:09;5.9;;;3.2;;
15498;SDS011;7851;52.260;6.030;2023-04-26T01:47:09;6.2;;;3.7;;
15498;SDS011;7851;52.260;6.030;2023-04-26T01:48:09;4.3;;;3.3;;
15498;SDS011;7851;52.260;6.030;2023-04-26T01:49:09;6;;;3.5;;
15498;SDS011;7851;52.260;6.030;2023-04-26T01:50:09;7.3;;;3.7;;
15498;SDS011;7851;52.260;6.030;2023-04-26T01:51:09;6.3;;;3.4;;
15498;SDS011;7851;52.260;6.030;2023-04-26T01:52:09;8.1;;;3.9;;
15498;SDS011;7851;52.260;6.030;2023-04-26T01:53:09;3.1;;;2.8;;
15498;SDS011;7851;52.260;6.030;2023-04-26T01:54:09;5.3;;;2.9;;
15498;SDS011;7851;52.260;6.030;2023-04-26T01:55:09;3.7;;;2.9;;
15498;SDS011;7851;52.260;6.030;2023-04-26T01:56:09;3.9;;;3.2;;
15498;SDS011;7851;52.260;6.030;2023-04-26T01:57:09;6.8;;;3.2;;
15498;SDS011;7851;52.260;6.030;2023-04-26T01:58:09;5.1;;;3.6;;
15498;SDS011;7851;52.260;6.030;2023-04-26T01:59:09;5.9;;;3.3;;
15498;SDS011;7851;52.260;6.030;2023-04-26T02:00:10;3.9;;;3;;
15498;SDS011;7851;52.260;6.030;2023-04-26T02:01:09;5;;;3.4;;
15498;SDS011;7851;52.260;6.030;2023-04-26T02:02:09;5.4;;;2.8;;
15498;SDS011;7851;52.260;6.030;2023-04-26T02:03:09;6.6;;;3.4;;
15498;SDS011;7851;52.260;6.030;2023-04-26T02:04:09;3.2;;;2.9;;
15498;SDS011;7851;52.260;6.030;2023-04-26T02:05:10;7.4;;;3.3;;
15498;SDS011;7851;52.260;6.030;2023-04-26T02:06:09;4.2;;;3.2;;
15498;SDS011;7851;52.260;6.030;2023-04-26T02:07:09;6.8;;;3.4;;
15498;SDS011;7851;52.260;6.030;2023-04-26T02:08:09;3.5;;;3.1;;
15498;SDS011;7851;52.260;6.030;2023-04-26T02:09:09;4.9;;;3.1;;
15498;SDS011;7851;52.260;6.030;2023-04-26T02:10:09;6.6;;;3.2;;
15498;SDS011;7851;52.260;6.030;2023-04-26T02:11:09;6.7;;;3.6;;
15498;SDS011;7851;52.260;6.030;2023-04-26T02:12:09;6.1;;;3.2;;
15498;SDS011;7851;52.260;6.030;2023-04-26T02:13:09;5.1;;;3.1;;
15498;SDS011;7851;52.260;6.030;2023-04-26T02:14:09;6.3;;;3.2;;
15498;SDS011;7851;52.260;6.030;2023-04-26T02:15:10;5.7;;;3;;
15498;SDS011;7851;52.260;6.030;2023-04-26T02:16:09;4.2;;;3.4;;
15498;SDS011;7851;52.260;6.030;2023-04-26T02:17:09;4.4;;;2.9;;
15498;SDS011;7851;52.260;6.030;2023-04-26T02:18:09;4.7;;;2.9;;
15498;SDS011;7851;52.260;6.030;2023-04-26T02:19:09;4.9;;;3.3;;
15498;SDS011;7851;52.260;6.030;2023-04-26T02:20:10;4.6;;;2.9;;
15498;SDS011;7851;52.260;6.030;2023-04-26T02:21:09;4;;;2.8;;
15498;SDS011;7851;52.260;6.030;2023-04-26T02:22:09;4.8;;;3.3;;
15498;SDS011;7851;52.260;6.030;2023-04-26T02:23:09;4.3;;;3.2;;
15498;SDS011;7851;52.260;6.030;2023-04-26T02:24:09;3.5;;;3.2;;
15498;SDS011;7851;52.260;6.030;2023-04-26T02:25:09;4;;;2.9;;
15498;SDS011;7851;52.260;6.030;2023-04-26T02:26:09;7.2;;;3.6;;
15498;SDS011;7851;52.260;6.030;2023-04-26T02:27:09;4.9;;;3.5;;
15498;SDS011;7851;52.260;6.030;2023-04-26T02:28:09;7.8;;;3.6;;
15498;SDS011;7851;52.260;6.030;2023-04-26T02:29:09;5;;;3.2;;
15498;SDS011;7851;52.260;6.030;2023-04-26T02:30:10;5.4;;;3.2;;
15498;SDS011;7851;52.260;6.030;2023-04-26T02:31:09;4.4;;;3.4;;
15498;SDS011;7851;52.260;6.030;2023-04-26T02:32:09;5.3;;;3.5;;
15498;SDS011;7851;52.260;6.030;2023-04-26T02:33:09;5.3;;;3.4;;
15498;SDS011;7851;52.260;6.030;2023-04-26T02:34:09;5.7;;;3.5;;
15498;SDS011;7851;52.260;6.030;2023-04-26T02:35:09;9.6;;;3.9;;
15498;SDS011;7851;52.260;6.030;2023-04-26T02:36:09;4.4;;;3.5;;
15498;SDS011;7851;52.260;6.030;2023-04-26T02:37:09;8.5;;;3.5;;
15498;SDS011;7851;52.260;6.030;2023-04-26T02:38:09;3.5;;;3;;
15498;SDS011;7851;52.260;6.030;2023-04-26T02:39:09;5.4;;;3;;
15498;SDS011;7851;52.260;6.030;2023-04-26T02:40:09;4;;;3.5;;
15498;SDS011;7851;52.260;6.030;2023-04-26T02:41:09;4.9;;;3;;
15498;SDS011;7851;52.260;6.030;2023-04-26T02:42:09;4.5;;;3.3;;
15498;SDS011;7851;52.260;6.030;2023-04-26T02:43:09;8.7;;;3.2;;
15498;SDS011;7851;52.260;6.030;2023-04-26T02:44:09;3.7;;;3.1;;
15498;SDS011;7851;52.260;6.030;2023-04-26T02:45:09;4.1;;;3.1;;
15498;SDS011;7851;52.260;6.030;2023-04-26T02:46:09;4.1;;;3.1;;
15498;SDS011;7851;52.260;6.030;2023-04-26T02:47:09;4.5;;;3;;
15498;SDS011;7851;52.260;6.030;2023-04-26T02:48:09;6.1;;;3.4;;
15498;SDS011;7851;52.260;6.030;2023-04-26T02:49:09;4.8;;;3.3;;
15498;SDS011;7851;52.260;6.030;2023-04-26T02:50:09;8.8;;;3.5;;
15498;SDS011;7851;52.260;6.030;2023-04-26T02:51:09;5.6;;;3.6;;
15498;SDS011;7851;52.260;6.030;2023-04-26T02:52:09;3.9;;;3.5;;
15498;SDS011;7851;52.260;6.030;2023-04-26T02:53:09;3.4;;;3.1;;
15498;SDS011;7851;52.260;6.030;2023-04-26T02:54:09;5.2;;;3;;
15498;SDS011;7851;52.260;6.030;2023-04-26T02:55:09;7.2;;;3.6;;
15498;SDS011;7851;52.260;6.030;2023-04-26T02:56:09;5.7;;;3.5;;
15498;SDS011;7851;52.260;6.030;2023-04-26T02:57:09;5.8;;;3.4;;
15498;SDS011;7851;52.260;6.030;2023-04-26T02:58:09;3.8;;;3.1;;
15498;SDS011;7851;52.260;6.030;2023-04-26T02:59:09;7.4;;;3.6;;
15498;SDS011;7851;52.260;6.030;2023-04-26T03:00:10;6.2;;;3.4;;
15498;SDS011;7851;52.260;6.030;2023-04-26T03:01:09;4.6;;;3.5;;
15498;SDS011;7851;52.260;6.030;2023-04-26T03:02:09;4.5;;;3.2;;
15498;SDS011;7851;52.260;6.030;2023-04-26T03:03:09;5.1;;;3.1;;
15498;SDS011;7851;52.260;6.030;2023-04-26T03:04:09;4.6;;;2.9;;
15498;SDS011;7851;52.260;6.030;2023-04-26T03:05:09;6.8;;;2.9;;
15498;SDS011;7851;52.260;6.030;2023-04-26T03:06:09;4.2;;;2.9;;
15498;SDS011;7851;52.260;6.030;2023-04-26T03:07:09;4.6;;;3;;
15498;SDS011;7851;52.260;6.030;2023-04-26T03:08:09;4.5;;;3.1;;
15498;SDS011;7851;52.260;6.030;2023-04-26T03:09:09;6.3;;;3.1;;
15498;SDS011;7851;52.260;6.030;2023-04-26T03:10:09;3.7;;;3.3;;
15498;SDS011;7851;52.260;6.030;2023-04-26T03:11:09;3.5;;;3.1;;
15498;SDS011;7851;52.260;6.030;2023-04-26T03:12:10;4.8;;;3.5;;
15498;SDS011;7851;52.260;6.030;2023-04-26T03:13:09;5.7;;;3.2;;
15498;SDS011;7851;52.260;6.030;2023-04-26T03:14:09;4.7;;;3.3;;
15498;SDS011;7851;52.260;6.030;2023-04-26T03:15:09;4.8;;;3;;
15498;SDS011;7851;52.260;6.030;2023-04-26T03:16:09;3.3;;;3;;
15498;SDS011;7851;52.260;6.030;2023-04-26T03:17:09;6.9;;;4.1;;
15498;SDS011;7851;52.260;6.030;2023-04-26T03:18:09;6.2;;;3.9;;
15498;SDS011;7851;52.260;6.030;2023-04-26T03:19:09;5.8;;;3.5;;
15498;SDS011;7851;52.260;6.030;2023-04-26T03:20:10;7.4;;;3.6;;
15498;SDS011;7851;52.260;6.030;2023-04-26T03:21:09;4.7;;;3.8;;
15498;SDS011;7851;52.260;6.030;2023-04-26T03:22:09;6.4;;;4.1;;
15498;SDS011;7851;52.260;6.030;2023-04-26T03:23:09;3.8;;;3.1;;
15498;SDS011;7851;52.260;6.030;2023-04-26T03:24:09;3.9;;;3.5;;
15498;SDS011;7851;52.260;6.030;2023-04-26T03:25:09;5.9;;;3.8;;
15498;SDS011;7851;52.260;6.030;2023-04-26T03:26:09;5.3;;;3.2;;
15498;SDS011;7851;52.260;6.030;2023-04-26T03:27:09;6.1;;;3.6;;
15498;SDS011;7851;52.260;6.030;2023-04-26T03:28:09;4.1;;;3.3;;
15498;SDS011;7851;52.260;6.030;2023-04-26T03:29:09;5.2;;;3.4;;
15498;SDS011;7851;52.260;6.030;2023-04-26T03:30:09;7.1;;;3.6;;
15498;SDS011;7851;52.260;6.030;2023-04-26T03:31:09;6.8;;;4;;
15498;SDS011;7851;52.260;6.030;2023-04-26T03:32:09;4.1;;;3.2;;
15498;SDS011;7851;52.260;6.030;2023-04-26T03:33:09;5.8;;;3.2;;
15498;SDS011;7851;52.260;6.030;2023-04-26T03:34:09;4.3;;;3.6;;
15498;SDS011;7851;52.260;6.030;2023-04-26T03:35:09;5.1;;;3.3;;
15498;SDS011;7851;52.260;6.030;2023-04-26T03:36:09;7.8;;;3.5;;
15498;SDS011;7851;52.260;6.030;2023-04-26T03:37:09;4.4;;;3.6;;
15498;SDS011;7851;52.260;6.030;2023-04-26T03:38:09;5.4;;;3.5;;
15498;SDS011;7851;52.260;6.030;2023-04-26T03:39:09;8.8;;;3.6;;
15498;SDS011;7851;52.260;6.030;2023-04-26T03:40:10;6;;;3.8;;
15498;SDS011;7851;52.260;6.030;2023-04-26T03:41:09;6.1;;;3.4;;
15498;SDS011;7851;52.260;6.030;2023-04-26T03:42:09;6.8;;;3.8;;
15498;SDS011;7851;52.260;6.030;2023-04-26T03:43:09;6;;;3.7;;
15498;SDS011;7851;52.260;6.030;2023-04-26T03:44:09;10.3;;;4;;
15498;SDS011;7851;52.260;6.030;2023-04-26T03:45:09;5.4;;;3.7;;
15498;SDS011;7851;52.260;6.030;2023-04-26T03:46:09;3.9;;;3.4;;
15498;SDS011;7851;52.260;6.030;2023-04-26T03:47:09;4.5;;;3.2;;
15498;SDS011;7851;52.260;6.030;2023-04-26T03:48:09;6.2;;;3.5;;
15498;SDS011;7851;52.260;6.030;2023-04-26T03:49:09;5.7;;;3.3;;
15498;SDS011;7851;52.260;6.030;2023-04-26T03:50:09;4.5;;;3.1;;
15498;SDS011;7851;52.260;6.030;2023-04-26T03:51:09;3.9;;;3;;
15498;SDS011;7851;52.260;6.030;2023-04-26T03:52:09;3.3;;;2.5;;
15498;SDS011;7851;52.260;6.030;2023-04-26T03:53:09;5.4;;;2.8;;
15498;SDS011;7851;52.260;6.030;2023-04-26T03:54:09;4.5;;;2.9;;
15498;SDS011;7851;52.260;6.030;2023-04-26T03:55:09;4.4;;;3.3;;
15498;SDS011;7851;52.260;6.030;2023-04-26T03:56:09;4.4;;;3.3;;
15498;SDS011;7851;52.260;6.030;2023-04-26T03:57:09;6.5;;;3.6;;
15498;SDS011;7851;52.260;6.030;2023-04-26T03:58:09;4.2;;;3.2;;
15498;SDS011;7851;52.260;6.030;2023-04-26T03:59:09;5.5;;;3.1;;
15498;SDS011;7851;52.260;6.030;2023-04-26T04:00:10;5.9;;;3.2;;
15498;SDS011;7851;52.260;6.030;2023-04-26T04:01:09;3.9;;;3;;
15498;SDS011;7851;52.260;6.030;2023-04-26T04:02:09;5.3;;;3.5;;
15498;SDS011;7851;52.260;6.030;2023-04-26T04:03:09;6.2;;;3.4;;
15498;SDS011;7851;52.260;6.030;2023-04-26T04:04:09;6.1;;;3.8;;
15498;SDS011;7851;52.260;6.030;2023-04-26T04:05:09;5.6;;;3.8;;
15498;SDS011;7851;52.260;6.030;2023-04-26T04:06:09;7.2;;;4;;
15498;SDS011;7851;52.260;6.030;2023-04-26T04:07:09;8.1;;;4;;
15498;SDS011;7851;52.260;6.030;2023-04-26T04:08:09;8.3;;;3.7;;
15498;SDS011;7851;52.260;6.030;2023-04-26T04:09:09;4;;;3.6;;
15498;SDS011;7851;52.260;6.030;2023-04-26T04:10:09;5.7;;;3.6;;
15498;SDS011;7851;52.260;6.030;2023-04-26T04:11:09;7.2;;;4;;
15498;SDS011;7851;52.260;6.030;2023-04-26T04:12:09;5.6;;;3.7;;
15498;SDS011;7851;52.260;6.030;2023-04-26T04:13:09;4.2;;;3.3;;
15498;SDS011;7851;52.260;6.030;2023-04-26T04:14:09;4.2;;;3.8;;
15498;SDS011;7851;52.260;6.030;2023-04-26T04:15:09;5.1;;;3.6;;
15498;SDS011;7851;52.260;6.030;2023-04-26T04:16:09;8.2;;;4.1;;
15498;SDS011;7851;52.260;6.030;2023-04-26T04:17:09;6.2;;;3.9;;
15498;SDS011;7851;52.260;6.030;2023-04-26T04:18:09;5.1;;;3.8;;
15498;SDS011;7851;52.260;6.030;2023-04-26T04:19:09;6.6;;;3.9;;
15498;SDS011;7851;52.260;6.030;2023-04-26T04:20:10;6.6;;;3.6;;
15498;SDS011;7851;52.260;6.030;2023-04-26T04:21:09;4.5;;;4;;
15498;SDS011;7851;52.260;6.030;2023-04-26T04:22:09;4.3;;;3.6;;
15498;SDS011;7851;52.260;6.030;2023-04-26T04:23:09;5.8;;;3.9;;
15498;SDS011;7851;52.260;6.030;2023-04-26T04:24:09;5.1;;;4;;
15498;SDS011;7851;52.260;6.030;2023-04-26T04:25:09;5.6;;;3.4;;
15498;SDS011;7851;52.260;6.030;2023-04-26T04:26:09;6.6;;;4;;
15498;SDS011;7851;52.260;6.030;2023-04-26T04:27:09;7.5;;;3.8;;
15498;SDS011;7851;52.260;6.030;2023-04-26T04:28:09;7.9;;;3.8;;
15498;SDS011;7851;52.260;6.030;2023-04-26T04:29:09;6.1;;;3.4;;
15498;SDS011;7851;52.260;6.030;2023-04-26T04:30:10;7.5;;;4;;
15498;SDS011;7851;52.260;6.030;2023-04-26T04:31:09;5;;;3.9;;
15498;SDS011;7851;52.260;6.030;2023-04-26T04:32:09;6.6;;;3.7;;
15498;SDS011;7851;52.260;6.030;2023-04-26T04:33:09;5.9;;;3.8;;
15498;SDS011;7851;52.260;6.030;2023-04-26T04:34:09;4.4;;;3.7;;
15498;SDS011;7851;52.260;6.030;2023-04-26T04:35:09;8;;;3.9;;
15498;SDS011;7851;52.260;6.030;2023-04-26T04:36:09;9;;;4.3;;
15498;SDS011;7851;52.260;6.030;2023-04-26T04:37:09;5.6;;;3.6;;
15498;SDS011;7851;52.260;6.030;2023-04-26T04:38:09;3.9;;;3.5;;
15498;SDS011;7851;52.260;6.030;2023-04-26T04:39:09;5.5;;;3.6;;
15498;SDS011;7851;52.260;6.030;2023-04-26T04:40:09;5;;;3.7;;
15498;SDS011;7851;52.260;6.030;2023-04-26T04:41:09;6.2;;;3.5;;
15498;SDS011;7851;52.260;6.030;2023-04-26T04:42:09;5.6;;;3.9;;
15498;SDS011;7851;52.260;6.030;2023-04-26T04:43:09;4.1;;;3.7;;
15498;SDS011;7851;52.260;6.030;2023-04-26T04:44:09;6.7;;;3.8;;
15498;SDS011;7851;52.260;6.030;2023-04-26T04:45:09;4.1;;;3.7;;
15498;SDS011;7851;52.260;6.030;2023-04-26T04:46:09;7.9;;;3.5;;
15498;SDS011;7851;52.260;6.030;2023-04-26T04:47:09;5;;;3.5;;
15498;SDS011;7851;52.260;6.030;2023-04-26T04:48:09;5.1;;;3.5;;
15498;SDS011;7851;52.260;6.030;2023-04-26T04:49:09;4.5;;;3.1;;
15498;SDS011;7851;52.260;6.030;2023-04-26T04:50:09;5.1;;;3.5;;
15498;SDS011;7851;52.260;6.030;2023-04-26T04:51:09;12.4;;;3.8;;
15498;SDS011;7851;52.260;6.030;2023-04-26T04:52:09;9;;;4.1;;
15498;SDS011;7851;52.260;6.030;2023-04-26T04:53:09;3.6;;;3.3;;
15498;SDS011;7851;52.260;6.030;2023-04-26T04:54:10;6;;;3.6;;
15498;SDS011;7851;52.260;6.030;2023-04-26T04:55:09;5.6;;;3.5;;
15498;SDS011;7851;52.260;6.030;2023-04-26T04:56:09;3.7;;;3.3;;
15498;SDS011;7851;52.260;6.030;2023-04-26T04:57:09;3.5;;;3.2;;
15498;SDS011;7851;52.260;6.030;2023-04-26T04:58:09;4.8;;;3.4;;
15498;SDS011;7851;52.260;6.030;2023-04-26T04:59:09;4;;;3.4;;
15498;SDS011;7851;52.260;6.030;2023-04-26T05:00:10;8;;;4.2;;
15498;SDS011;7851;52.260;6.030;2023-04-26T05:01:09;7;;;4.1;;
15498;SDS011;7851;52.260;6.030;2023-04-26T05:02:09;4.9;;;4;;
15498;SDS011;7851;52.260;6.030;2023-04-26T05:03:09;7.3;;;3.9;;
15498;SDS011;7851;52.260;6.030;2023-04-26T05:04:09;11.6;;;4;;
15498;SDS011;7851;52.260;6.030;2023-04-26T05:05:09;6.9;;;3.6;;
15498;SDS011;7851;52.260;6.030;2023-04-26T05:06:09;5.8;;;3.3;;
15498;SDS011;7851;52.260;6.030;2023-04-26T05:07:09;6.8;;;3.8;;
15498;SDS011;7851;52.260;6.030;2023-04-26T05:08:09;8.1;;;4.2;;
15498;SDS011;7851;52.260;6.030;2023-04-26T05:09:09;11.6;;;3.9;;
15498;SDS011;7851;52.260;6.030;2023-04-26T05:10:10;4.3;;;3.4;;
15498;SDS011;7851;52.260;6.030;2023-04-26T05:11:09;5.5;;;3.7;;
15498;SDS011;7851;52.260;6.030;2023-04-26T05:12:09;6.7;;;3.6;;
15498;SDS011;7851;52.260;6.030;2023-04-26T05:13:09;6;;;3.6;;
15498;SDS011;7851;52.260;6.030;2023-04-26T05:14:09;6.2;;;3.5;;
15498;SDS011;7851;52.260;6.030;2023-04-26T05:15:09;6.2;;;4;;
15498;SDS011;7851;52.260;6.030;2023-04-26T05:16:09;6.2;;;3.5;;
15498;SDS011;7851;52.260;6.030;2023-04-26T05:17:09;6.3;;;3.8;;
15498;SDS011;7851;52.260;6.030;2023-04-26T05:18:09;4.6;;;3.4;;
15498;SDS011;7851;52.260;6.030;2023-04-26T05:19:09;4;;;3;;
15498;SDS011;7851;52.260;6.030;2023-04-26T05:20:09;5.9;;;3.6;;
15498;SDS011;7851;52.260;6.030;2023-04-26T05:21:09;5.3;;;3.3;;
15498;SDS011;7851;52.260;6.030;2023-04-26T05:22:09;4.7;;;3.2;;
15498;SDS011;7851;52.260;6.030;2023-04-26T05:23:09;4;;;3.3;;
15498;SDS011;7851;52.260;6.030;2023-04-26T05:24:09;4.5;;;3.8;;
15498;SDS011;7851;52.260;6.030;2023-04-26T05:25:09;5;;;3.6;;
15498;SDS011;7851;52.260;6.030;2023-04-26T05:26:12;6.5;;;3.5;;
15498;SDS011;7851;52.260;6.030;2023-04-26T05:27:09;4.4;;;3.9;;
15498;SDS011;7851;52.260;6.030;2023-04-26T05:28:09;5;;;4;;
15498;SDS011;7851;52.260;6.030;2023-04-26T05:29:09;5.6;;;4.4;;
15498;SDS011;7851;52.260;6.030;2023-04-26T05:30:09;7.1;;;4.8;;
15498;SDS011;7851;52.260;6.030;2023-04-26T05:31:09;9.7;;;4.8;;
15498;SDS011;7851;52.260;6.030;2023-04-26T05:32:09;5.5;;;4.4;;
15498;SDS011;7851;52.260;6.030;2023-04-26T05:33:09;7.3;;;4.4;;
15498;SDS011;7851;52.260;6.030;2023-04-26T05:34:09;6.9;;;4.6;;
15498;SDS011;7851;52.260;6.030;2023-04-26T05:35:09;9;;;4.9;;
15498;SDS011;7851;52.260;6.030;2023-04-26T05:36:09;6.9;;;5;;
15498;SDS011;7851;52.260;6.030;2023-04-26T05:37:09;6.6;;;4.7;;
15498;SDS011;7851;52.260;6.030;2023-04-26T05:38:09;7;;;5;;
15498;SDS011;7851;52.260;6.030;2023-04-26T05:39:09;9.2;;;4.8;;
15498;SDS011;7851;52.260;6.030;2023-04-26T05:40:09;7.5;;;4.9;;
15498;SDS011;7851;52.260;6.030;2023-04-26T05:41:09;8.1;;;4.7;;
15498;SDS011;7851;52.260;6.030;2023-04-26T05:42:09;8.1;;;5.1;;
15498;SDS011;7851;52.260;6.030;2023-04-26T05:43:09;7.5;;;4.8;;
15498;SDS011;7851;52.260;6.030;2023-04-26T05:44:09;10.8;;;5.3;;
15498;SDS011;7851;52.260;6.030;2023-04-26T05:45:09;6.1;;;5.1;;
15498;SDS011;7851;52.260;6.030;2023-04-26T05:46:09;7.1;;;4.8;;
15498;SDS011;7851;52.260;6.030;2023-04-26T05:47:09;5.5;;;5;;
15498;SDS011;7851;52.260;6.030;2023-04-26T05:48:09;6.2;;;5.6;;
15498;SDS011;7851;52.260;6.030;2023-04-26T05:49:09;10.2;;;6.3;;
15498;SDS011;7851;52.260;6.030;2023-04-26T05:50:09;6.3;;;5.7;;
15498;SDS011;7851;52.260;6.030;2023-04-26T05:51:09;9.8;;;6.7;;
15498;SDS011;7851;52.260;6.030;2023-04-26T05:52:09;6.6;;;6;;
15498;SDS011;7851;52.260;6.030;2023-04-26T05:53:09;9.6;;;6.4;;
15498;SDS011;7851;52.260;6.030;2023-04-26T05:54:09;12.9;;;6.2;;
15498;SDS011;7851;52.260;6.030;2023-04-26T05:55:09;6.8;;;6.1;;
15498;SDS011;7851;52.260;6.030;2023-04-26T05:56:09;6.1;;;5.5;;
15498;SDS011;7851;52.260;6.030;2023-04-26T05:57:09;8.8;;;6.2;;
15498;SDS011;7851;52.260;6.030;2023-04-26T05:58:09;9.5;;;6.4;;
15498;SDS011;7851;52.260;6.030;2023-04-26T05:59:09;7.9;;;5.5;;
15498;SDS011;7851;52.260;6.030;2023-04-26T06:00:10;12.4;;;6.5;;
15498;SDS011;7851;52.260;6.030;2023-04-26T06:01:09;6.5;;;5.9;;
15498;SDS011;7851;52.260;6.030;2023-04-26T06:02:09;11.2;;;6.9;;
15498;SDS011;7851;52.260;6.030;2023-04-26T06:03:09;9.1;;;6.4;;
15498;SDS011;7851;52.260;6.030;2023-04-26T06:04:09;10.7;;;6.9;;
15498;SDS011;7851;52.260;6.030;2023-04-26T06:05:09;7.7;;;6.3;;
15498;SDS011;7851;52.260;6.030;2023-04-26T06:06:09;8.2;;;6.8;;
15498;SDS011;7851;52.260;6.030;2023-04-26T06:07:09;7.7;;;7;;
15498;SDS011;7851;52.260;6.030;2023-04-26T06:08:09;11.4;;;7.1;;
15498;SDS011;7851;52.260;6.030;2023-04-26T06:09:09;8;;;7.3;;
15498;SDS011;7851;52.260;6.030;2023-04-26T06:10:09;7.8;;;7;;
15498;SDS011;7851;52.260;6.030;2023-04-26T06:11:09;8.3;;;6.9;;
15498;SDS011;7851;52.260;6.030;2023-04-26T06:12:09;7.8;;;7;;
15498;SDS011;7851;52.260;6.030;2023-04-26T06:13:09;7.7;;;6.8;;
15498;SDS011;7851;52.260;6.030;2023-04-26T06:14:09;8.9;;;7.1;;
15498;SDS011;7851;52.260;6.030;2023-04-26T06:15:10;10.6;;;7.9;;
15498;SDS011;7851;52.260;6.030;2023-04-26T06:16:09;7.5;;;6.8;;
15498;SDS011;7851;52.260;6.030;2023-04-26T06:17:09;7.8;;;6.9;;
15498;SDS011;7851;52.260;6.030;2023-04-26T06:18:09;8.8;;;7.6;;
15498;SDS011;7851;52.260;6.030;2023-04-26T06:19:09;7.7;;;6.8;;
15498;SDS011;7851;52.260;6.030;2023-04-26T06:20:09;7.7;;;6.5;;
15498;SDS011;7851;52.260;6.030;2023-04-26T06:21:09;8.1;;;7.3;;
15498;SDS011;7851;52.260;6.030;2023-04-26T06:22:09;9.6;;;7.1;;